Latest Weather Observations for Biloela

IDQ60801

Issued at 2:01 pm EST Wednesday 5 August 2015 (issued every 30 minutes, with the page automatically refreshed every 10 minutes)

About weather observations | Map of weather stations | Latest weather observations for QLD | Other Formats
Station Details ID: 039089 Name: THANGOOL AIRPORT Lat: -24.49 Lon: 150.57 Height: 193.1 m
Data from the previous 72 hours. | See also: Recent months at Biloela
Date/Time
EST
Temp
°C
App
Temp
°C
Dew
Point
Rel
Hum
%
Delta-T
°C
Wind Press
QNH
hPa
Press
MSL
hPa
Rain
since 9 am
mm
Dir
 
Spd
km/h
Gust
km/h
Spd
kts
Gust
kts
05/02:00pm 18.7 13.8 -0.2 28 8.3 SW 15 24 8 13 1016.5 - 0.0
05/01:30pm 17.9 12.7 0.1 30 7.8 SW 17 28 9 15 1016.9 - 0.0
05/01:00pm 18.1 12.9 0.3 30 7.9 SW 17 28 9 15 1017.4 - 0.0
05/12:30pm 17.9 12.3 0.1 30 7.8 SSW 19 32 10 17 1018.1 - 0.0
05/12:00pm 17.1 11.5 -0.1 31 7.4 SSW 19 30 10 16 1018.6 1018.4 0.0
05/11:30am 16.5 11.4 0.6 34 7.0 SSW 17 30 9 16 1019.1 - 0.0
05/11:00am 15.5 9.9 0.1 35 6.6 SSW 19 30 10 16 1019.7 - 0.0
05/10:30am 14.7 8.9 0.2 37 6.2 SSW 20 24 11 13 1020.3 - 0.0
05/10:00am 14.8 10.1 1.0 39 6.0 S 15 22 8 12 1020.8 - 0.0
05/09:30am 13.5 8.4 0.5 41 5.5 S 17 22 9 12 1021.1 - 0.0
05/09:00am 12.6 7.9 0.7 44 5.0 SSE 15 24 8 13 1021.2 1021.1 0.0
05/08:30am 10.4 7.4 2.3 57 3.5 SE 7 15 4 8 1021.2 - 0.0
05/08:00am 8.3 5.3 2.3 66 2.5 SE 7 13 4 7 1020.9 - 0.0
05/07:30am 5.5 3.1 2.3 80 1.3 SSE 4 11 2 6 1020.7 - 0.0
05/07:00am 3.9 0.8 0.4 78 1.3 SE 6 9 3 5 1020.4 - 0.0
05/06:30am 3.8 0.5 0.3 78 1.3 SE 7 13 4 7 1020.0 - 0.0
05/06:00am 3.9 0.6 -0.1 75 1.5 SE 7 11 4 6 1019.9 1019.7 0.0
05/05:30am 4.8 0.9 1.3 78 1.4 ESE 11 15 6 8 1019.6 - 0.0
05/05:00am 5.4 2.0 1.7 77 1.5 ESE 9 13 5 7 1019.5 - 0.0
05/04:30am 3.8 0.6 0.7 80 1.2 SE 7 11 4 6 1019.5 - 0.0
05/04:00am 3.4 0.1 -0.2 77 1.4 E 7 7 4 4 1019.5 - 0.0
05/03:30am 4.4 1.2 -0.4 71 1.8 SE 6 9 3 5 1019.2 - 0.0
05/03:00am 6.2 3.0 0.9 69 2.1 SE 7 9 4 5 1019.4 1019.2 0.0
05/02:30am 6.3 2.7 0.8 68 2.2 ESE 9 11 5 6 1019.5 - 0.0
05/02:00am 7.8 3.1 1.2 63 2.7 ESE 15 17 8 9 1019.7 - 0.0
05/01:30am 7.8 4.7 1.2 63 2.7 SE 7 11 4 6 1019.9 - 0.0
05/01:00am 8.0 4.9 1.4 63 2.7 ESE 7 9 4 5 1019.9 - 0.0
05/12:30am 4.6 1.0 -2.0 62 2.4 E 7 9 4 5 1019.9 - 0.0
05/12:00am 7.0 3.7 -1.2 56 3.1 SE 6 7 3 4 1019.8 1019.6 0.0
 
Date/Time
EST
Temp
°C
App
Temp
°C
Dew
Point
Rel
Hum
%
Delta-T
°C
Wind Press
QNH
hPa
Press
MSL
hPa
Rain
since 9 am
mm
Dir
 
Spd
km/h
Gust
km/h
Spd
kts
Gust
kts
04/11:30pm 9.3 5.9 -0.3 51 3.8 SE 7 11 4 6 1019.9 - 0.0
04/11:00pm 9.3 6.0 -1.1 48 4.1 SE 6 9 3 5 1019.9 - 0.0
04/10:30pm 10.9 7.5 -0.5 45 4.6 SSE 7 11 4 6 1019.6 - 0.0
04/10:00pm 9.1 5.7 -1.9 46 4.2 ESE 6 9 3 5 1019.5 - 0.0
04/09:30pm 12.0 8.6 -1.9 38 5.5 SE 6 9 3 5 1019.4 - 0.0
04/09:00pm 11.6 8.1 -1.2 41 5.1 E 7 9 4 5 1018.9 1018.7 0.0
04/08:30pm 12.8 9.0 -0.4 40 5.5 E 9 11 5 6 1018.7 - 0.0
04/08:00pm 12.4 9.6 -0.1 42 5.2 S 4 7 2 4 1018.5 - 0.0
04/07:30pm 10.5 8.5 0.0 48 4.3 CALM 0 6 0 3 1018.4 - 0.0
04/07:00pm 11.4 9.4 -0.4 44 4.8 CALM 0 4 0 2 1018.1 - 0.0
04/06:30pm 15.4 12.1 0.0 35 6.6 WSW 7 9 4 5 1017.7 - 0.0
04/06:00pm 16.9 13.2 0.1 32 7.3 SW 9 13 5 7 1017.5 1017.4 0.0
04/05:30pm 18.3 14.7 0.4 30 7.9 SW 9 11 5 6 1017.5 - 0.0
04/05:00pm 19.5 15.9 0.5 28 8.5 SW 9 17 5 9 1017.3 - 0.0
04/04:30pm 21.1 16.7 0.3 25 9.4 SW 13 22 7 12 1017.0 - 0.0
04/04:00pm 21.5 16.3 0.1 24 9.7 SSW 17 22 9 12 1016.9 - 0.0
04/03:30pm 22.4 18.0 0.3 23 10.1 SSW 13 19 7 10 1016.7 - 0.0
04/03:00pm 22.4 19.0 2.0 26 9.6 S 9 17 5 9 1016.9 1016.8 0.0
04/02:30pm 21.0 18.1 2.8 30 8.6 W 7 11 4 6 1017.2 - 0.0
04/02:00pm 20.1 16.0 2.0 30 8.4 SSW 13 26 7 14 1017.7 - 0.0
04/01:30pm 20.7 17.3 3.9 33 8.1 SW 11 17 6 9 1018.3 - 0.0
04/01:00pm 19.5 15.5 2.8 33 7.8 SSW 13 20 7 11 1018.7 - 0.0
04/12:30pm 18.2 14.5 2.5 35 7.3 SSW 11 20 6 11 1019.2 - 0.0
04/12:00pm 17.4 15.2 5.4 45 5.8 W 6 11 3 6 1019.7 1019.5 0.0
04/11:30am 17.1 14.7 5.1 45 5.8 SSE 7 11 4 6 1020.2 - 0.0
04/11:00am 16.6 14.3 5.6 48 5.4 SSE 7 13 4 7 1020.7 - 0.0
04/10:30am 15.4 13.3 6.7 56 4.3 ENE 7 11 4 6 1021.2 - 0.0
04/10:00am 14.0 11.8 6.4 60 3.7 ESE 7 15 4 8 1021.5 - 0.0
04/09:30am 12.7 10.1 6.3 65 3.1 ESE 9 15 5 8 1021.6 - 0.0
04/09:00am 12.4 10.5 7.5 72 2.4 S 7 11 4 6 1021.7 1021.6 0.0
04/08:30am 12.4 9.2 5.3 62 3.3 SE 11 19 6 10 1021.1 - 0.0
04/08:00am 12.1 9.7 5.3 63 3.2 SE 7 15 4 8 1021.3 - 0.0
04/07:30am 11.6 8.8 5.0 64 3.1 SE 9 15 5 8 1021.0 - 0.0
04/07:00am 11.0 8.1 4.9 66 2.8 SE 9 11 5 6 1020.5 - 0.0
04/06:30am 10.6 7.3 4.7 67 2.7 ESE 11 17 6 9 1020.3 - 0.0
04/06:00am 10.4 7.5 4.5 67 2.7 ESE 9 13 5 7 1019.9 1019.7 0.0
04/05:30am 10.8 8.3 4.7 66 2.8 ESE 7 15 4 8 1019.8 - 0.0
04/05:00am 10.2 7.9 4.6 68 2.5 SSE 6 11 3 6 1019.7 - 0.0
04/04:30am 10.1 6.8 4.7 69 2.4 E 11 17 6 9 1018.9 - 0.0
04/04:00am 11.8 8.8 4.3 60 3.4 S 9 17 5 9 1019.3 - 0.0
04/03:30am 11.8 9.4 5.4 65 3.0 S 7 11 4 6 1019.1 - 0.0
04/03:00am 11.5 9.2 5.8 68 2.7 S 7 13 4 7 1018.8 1018.6 0.0
04/02:30am 10.8 8.7 6.6 75 2.0 SSE 7 9 4 5 1018.7 - 0.0
04/02:00am 12.0 10.2 7.1 72 2.4 SE 6 7 3 4 1018.5 - 0.0
04/01:30am 12.0 10.4 7.9 76 2.0 ESE 6 9 3 5 1018.7 - 0.0
04/01:00am 12.5 10.7 7.8 73 2.3 ESE 7 9 4 5 1018.9 - 0.0
04/12:30am 14.8 12.7 8.3 65 3.3 S 9 13 5 7 1018.8 - 0.0
04/12:00am 13.0 11.1 9.1 77 2.0 S 9 13 5 7 1018.9 1018.7 0.0
 
Date/Time
EST
Temp
°C
App
Temp
°C
Dew
Point
Rel
Hum
%
Delta-T
°C
Wind Press
QNH
hPa
Press
MSL
hPa
Rain
since 9 am
mm
Dir
 
Spd
km/h
Gust
km/h
Spd
kts
Gust
kts
03/11:30pm 11.4 9.7 7.7 78 1.8 SSE 6 7 3 4 1019.0 - 0.0
03/11:00pm 11.1 10.1 7.4 78 1.8 ESE 2 7 1 4 1018.8 - 0.0
03/10:30pm 12.8 11.1 8.3 74 2.3 ESE 7 11 4 6 1018.5 - 0.0
03/10:00pm 12.5 12.0 7.8 73 2.3 CALM 0 7 0 4 1018.3 - 0.0
03/09:30pm 13.3 11.5 8.0 70 2.6 S 7 13 4 7 1018.3 - 0.0
03/09:00pm 13.5 12.5 7.3 66 3.0 SE 2 6 1 3 1018.0 1017.8 0.0
03/08:30pm 14.0 12.7 7.8 66 3.1 N 4 11 2 6 1017.9 - 0.0
03/08:00pm 14.3 12.8 8.3 67 3.0 E 6 9 3 5 1017.7 - 0.0
03/07:30pm 14.9 14.6 8.6 66 3.2 CALM 0 0 0 0 1017.3 - 0.0
03/07:00pm 16.5 16.2 8.7 60 4.0 CALM 0 0 0 0 1017.1 - 0.0
03/06:30pm 17.6 17.1 7.9 53 5.0 CALM 0 0 0 0 1017.0 - 0.0
03/06:00pm 20.3 20.0 8.6 47 6.2 CALM 0 0 0 0 1016.6 1016.4 0.0
03/05:30pm 23.3 21.7 8.2 38 8.1 NW 6 7 3 4 1016.4 - 0.0
03/05:00pm 26.0 24.6 9.4 35 9.2 NW 7 11 4 6 1016.2 - 0.0
03/04:30pm 26.3 24.7 8.8 33 9.6 N 7 9 4 5 1016.1 - 0.0
03/04:00pm 27.0 25.8 9.4 33 9.8 NW 6 11 3 6 1016.1 - 0.0
03/03:30pm 27.2 25.8 9.5 33 9.9 NE 7 11 4 6 1016.2 - 0.0
03/03:00pm 27.2 25.2 10.0 34 9.7 N 11 15 6 8 1016.3 1016.1 0.0
03/02:30pm 26.9 25.5 9.7 34 9.6 WNW 7 15 4 8 1016.6 - 0.0
03/02:00pm 26.0 23.8 9.4 35 9.2 NNW 11 17 6 9 1016.7 - 0.0
03/01:30pm 25.6 23.6 10.2 38 8.6 N 11 17 6 9 1017.2 - 0.0
03/01:00pm 25.9 23.8 11.3 40 8.3 N 13 20 7 11 1017.9 - 0.0
03/12:30pm 25.1 23.4 11.3 42 7.9 NW 11 22 6 12 1018.5 - 0.0
03/12:00pm 24.2 22.2 11.5 45 7.2 NW 13 19 7 10 1019.0 1018.8 0.0
03/11:30am 23.6 21.9 12.3 49 6.5 NNW 13 20 7 11 1019.6 - 0.0
03/11:00am 23.2 21.6 12.8 52 6.0 NW 13 20 7 11 1020.2 - 0.0
03/10:30am 21.5 19.5 12.6 57 5.1 WNW 15 20 8 11 1020.8 - 0.0
03/10:00am 20.7 18.9 12.1 58 4.9 NNW 13 19 7 10 1021.1 - 0.0
03/09:30am 19.2 18.8 12.9 67 3.6 NNW 7 11 4 6 1021.3 - 0.0
03/09:00am 16.8 17.4 11.9 73 2.7 CALM 0 0 0 0 1021.5 1021.4 0.0
03/08:30am 13.7 13.2 10.7 82 1.6 ESE 4 7 2 4 1021.4 - 0.0
03/08:00am 11.2 10.0 9.5 89 0.9 ESE 6 7 3 4 1021.1 - 0.0
03/07:30am 9.4 7.9 8.6 95 0.4 E 6 7 3 4 1020.7 - 0.0
03/07:00am 8.0 5.7 7.6 97 0.2 E 9 9 5 5 1020.4 - 0.0
03/06:30am 7.7 5.7 7.1 96 0.3 E 7 9 4 5 1020.4 - 0.0
03/06:00am 7.9 5.6 7.5 97 0.2 E 9 9 5 5 1020.3 1020.1 0.0
03/05:30am 7.5 5.5 7.1 97 0.2 E 7 7 4 4 1020.1 - 0.0
03/05:00am 6.9 4.3 6.3 96 0.3 E 9 11 5 6 1020.0 - 0.0
03/04:30am 6.4 5.0 5.5 94 0.4 SE 2 7 1 4 1019.8 - 0.0
03/04:00am 6.5 4.2 5.5 93 0.4 SSE 7 9 4 5 1019.7 - 0.0
03/03:30am 8.3 6.1 7.9 97 0.2 E 9 11 5 6 1019.8 - 0.0
03/03:00am 7.6 5.6 6.9 95 0.3 E 7 9 4 5 1020.2 1020.0 0.0
03/02:30am 7.5 6.7 6.6 94 0.4 CALM 0 0 0 0 1020.3 - 0.0
03/02:00am 7.8 7.0 6.3 90 0.7 CALM 0 0 0 0 1020.3 - 0.0
03/01:30am 9.3 7.5 8.1 92 0.6 E 7 7 4 4 1020.3 - 0.0
03/01:00am 9.1 7.4 7.5 90 0.8 E 6 7 3 4 1020.6 - 0.0
03/12:30am 9.5 7.8 7.6 88 0.9 ESE 6 7 3 4 1020.6 - 0.0
03/12:00am 10.1 9.7 8.4 89 0.8 CALM 0 0 0 0 1020.8 1020.6 0.0
 
Date/Time
EST
Temp
°C
App
Temp
°C
Dew
Point
Rel
Hum
%
Delta-T
°C
Wind Press
QNH
hPa
Press
MSL
hPa
Rain
since 9 am
mm
Dir
 
Spd
km/h
Gust
km/h
Spd
kts
Gust
kts
02/11:30pm 9.8 9.2 7.6 86 1.1 CALM 0 0 0 0 1020.9 - 0.0
02/11:00pm 10.8 10.3 8.0 83 1.4 CALM 0 0 0 0 1020.9 - 0.0
02/10:30pm 11.7 10.8 7.8 77 1.9 WNW 2 9 1 5 1021.0 - 0.0
02/10:00pm 13.1 11.5 8.2 72 2.5 SSW 6 7 3 4 1021.1 - 0.0
02/09:30pm 12.9 11.5 8.8 76 2.1 SSE 6 9 3 5 1020.8 - 0.0
02/09:00pm 16.9 15.6 11.2 69 3.1 ENE 9 11 5 6 1020.7 1020.5 0.0
02/08:30pm 15.3 13.5 9.4 68 3.1 SSE 9 11 5 6 1020.7 - 0.0
02/08:00pm 14.4 13.3 8.4 67 3.0 SSE 4 9 2 5 1020.6 - 0.0
02/07:30pm 19.1 17.3 9.6 54 5.1 NNE 9 15 5 8 1020.5 - 0.0
02/07:00pm 20.1 18.2 10.5 54 5.3 NNE 11 17 6 9 1020.4 - 0.0
02/06:30pm 20.4 18.8 10.2 52 5.6 NNE 9 13 5 7 1020.3 - 0.0
02/06:00pm 20.5 19.0 9.1 48 6.1 N 7 11 4 6 1019.9 1019.7 0.0
02/05:30pm 22.2 19.6 9.4 44 6.9 N 13 17 7 9 1019.7 - 0.0
02/05:00pm 24.0 21.8 9.2 39 8.1 N 11 19 6 10 1019.6 - 0.0
02/04:30pm 24.9 21.9 9.2 37 8.6 NW 15 20 8 11 1019.4 - 0.0
02/04:00pm 25.5 22.9 9.3 36 8.9 NW 13 20 7 11 1019.5 - 0.0
02/03:30pm 25.5 22.5 9.3 36 8.9 N 15 20 8 11 1019.5 - 0.0
02/03:00pm 25.7 23.1 9.5 36 8.9 N 13 19 7 10 1019.6 1019.4 0.0
02/02:30pm 25.4 22.9 9.7 37 8.7 N 13 20 7 11 1019.9 - 0.0

Other Formats:

Comma delimited format used in spreadsheet applications
http://www.bom.gov.au/fwo/IDQ60801/IDQ60801.94376.axf

JavaScript Object Notation format (JSON) in row-major order
http://www.bom.gov.au/fwo/IDQ60801/IDQ60801.94376.json